createdAt,value
2017-11-22T00:01:26.864Z,99852.70
2017-11-22T00:03:53.404Z,99852.48
2017-11-22T00:06:19.809Z,99858.19
2017-11-22T00:08:46.189Z,99853.08
2017-11-22T00:11:12.573Z,99855.33
2017-11-22T00:13:38.925Z,99861.56
2017-11-22T00:16:05.357Z,99857.84
2017-11-22T00:18:31.690Z,99860.39
2017-11-22T00:20:58.041Z,99852.35
2017-11-22T00:23:24.414Z,99854.73
2017-11-22T00:25:50.782Z,99847.64
2017-11-22T00:28:17.137Z,99845.40
2017-11-22T00:30:43.524Z,99840.17
2017-11-22T00:33:09.983Z,99839.36
2017-11-22T00:35:36.416Z,99843.14
2017-11-22T00:38:02.849Z,99835.70
2017-11-22T00:40:29.191Z,99842.44
2017-11-22T00:42:55.544Z,99839.53
2017-11-22T00:45:21.986Z,99837.23
2017-11-22T00:47:48.353Z,99836.16
2017-11-22T00:50:14.810Z,99836.59
2017-11-22T00:52:41.345Z,99829.36
2017-11-22T00:55:07.698Z,99831.53
2017-11-22T00:57:34.108Z,99829.31
2017-11-22T01:00:00.500Z,99823.72
2017-11-22T01:02:26.874Z,99819.37
2017-11-22T01:04:53.257Z,99829.84
2017-11-22T01:07:19.666Z,99832.59
2017-11-22T01:09:46.018Z,99836.17
2017-11-22T01:12:12.373Z,99831.83
2017-11-22T01:14:38.781Z,99836.98
2017-11-22T01:17:05.162Z,99829.55
2017-11-22T01:19:31.496Z,99829.12
2017-11-22T01:21:57.910Z,99832.70
2017-11-22T01:24:24.259Z,99829.23
2017-11-22T01:26:50.609Z,99829.34
2017-11-22T01:29:16.995Z,99823.00
2017-11-22T01:31:43.353Z,99833.41
2017-11-22T01:34:09.758Z,99825.33
2017-11-22T01:36:36.273Z,99819.88
2017-11-22T01:39:02.704Z,99818.39
2017-11-22T01:41:29.086Z,99823.64
2017-11-22T01:43:55.522Z,99829.95
2017-11-22T01:46:21.901Z,99825.23
2017-11-22T01:48:48.362Z,99828.76
2017-11-22T01:51:14.797Z,99824.89
2017-11-22T01:53:41.251Z,99821.37
2017-11-22T01:56:07.645Z,99819.58
2017-11-22T01:58:34.025Z,99820.30
2017-11-22T02:01:00.397Z,99820.69
2017-11-22T02:03:26.792Z,99829.88
2017-11-22T02:05:53.189Z,99824.63
2017-11-22T02:08:19.571Z,99827.20
2017-11-22T02:10:45.930Z,99826.77
2017-11-22T02:13:12.328Z,99825.99
2017-11-22T02:15:38.669Z,99827.42
2017-11-22T02:18:05.026Z,99824.48
2017-11-22T02:20:31.440Z,99828.41
2017-11-22T02:22:57.813Z,99826.13
2017-11-22T02:25:24.170Z,99825.34
2017-11-22T02:27:50.577Z,99826.78
2017-11-22T02:30:16.928Z,99817.67
2017-11-22T02:32:43.309Z,99821.88
2017-11-22T02:35:09.774Z,99814.34
2017-11-22T02:37:36.148Z,99809.70
2017-11-22T02:40:02.574Z,99813.40
2017-11-22T02:42:29.231Z,99804.71
2017-11-22T02:44:55.665Z,99805.69
2017-11-22T02:47:22.111Z,99810.54
2017-11-22T02:49:48.574Z,99810.58
2017-11-22T02:52:15.135Z,99808.89
2017-11-22T02:54:41.566Z,99811.99
2017-11-22T02:57:08.051Z,99808.61
2017-11-22T02:59:34.454Z,99796.02
2017-11-22T03:02:00.843Z,99800.48
2017-11-22T03:04:27.229Z,99801.30
2017-11-22T03:06:53.607Z,99805.78
2017-11-22T03:09:20.014Z,99807.09
2017-11-22T03:11:46.600Z,99809.19
2017-11-22T03:14:12.961Z,99811.37
2017-11-22T03:16:39.336Z,99809.92
2017-11-22T03:19:05.899Z,99808.66
2017-11-22T03:21:32.277Z,99817.82
2017-11-22T03:23:58.766Z,99818.96
2017-11-22T03:26:25.194Z,99820.27
2017-11-22T03:28:51.574Z,99810.47
2017-11-22T03:31:18.050Z,99794.34
2017-11-22T03:33:44.660Z,99813.98
2017-11-22T03:36:11.184Z,99806.83
2017-11-22T03:38:37.617Z,99804.44
2017-11-22T03:41:04.065Z,99817.98
2017-11-22T03:43:30.538Z,99814.37
2017-11-22T03:45:56.950Z,99808.77
2017-11-22T03:48:23.558Z,99821.50
2017-11-22T03:50:56.033Z,99816.03
2017-11-22T03:53:28.569Z,99812.02
2017-11-22T03:55:55.098Z,99811.48
2017-11-22T03:58:21.631Z,99807.73
2017-11-22T04:00:48.113Z,99805.12
2017-11-22T04:03:16.482Z,99804.88
2017-11-22T04:05:48.845Z,99803.78
2017-11-22T04:08:17.329Z,99812.92
2017-11-22T04:10:43.832Z,99809.98
2017-11-22T04:13:10.269Z,99811.91
2017-11-22T04:15:36.650Z,99807.56
2017-11-22T04:18:03.053Z,99813.29
2017-11-22T04:20:30.417Z,99818.87
2017-11-22T04:22:56.798Z,99823.63
2017-11-22T04:25:23.216Z,99825.77
2017-11-22T04:27:49.641Z,99826.02
2017-11-22T04:30:16.270Z,99816.84
2017-11-22T04:32:42.858Z,99816.31
2017-11-22T04:35:09.270Z,99818.45
2017-11-22T04:37:35.658Z,99822.45
2017-11-22T04:40:02.021Z,99822.08
2017-11-22T04:42:28.429Z,99819.57
2017-11-22T04:44:54.921Z,99816.97
2017-11-22T04:47:21.377Z,99809.98
2017-11-22T04:49:47.852Z,99812.70
2017-11-22T04:52:14.423Z,99808.73
2017-11-22T04:54:40.902Z,99809.89
2017-11-22T04:57:07.612Z,99815.73
2017-11-22T04:59:34.010Z,99805.69
2017-11-22T05:02:00.512Z,99810.73
2017-11-22T05:04:27.000Z,99810.00
2017-11-22T05:06:53.534Z,99809.81
2017-11-22T05:09:20.070Z,99808.64
2017-11-22T05:11:46.502Z,99810.14
2017-11-22T05:14:12.914Z,99812.38
2017-11-22T05:16:39.473Z,99806.52
2017-11-22T05:19:05.985Z,99814.70
2017-11-22T05:21:32.501Z,99814.72
2017-11-22T05:23:59.079Z,99813.55
2017-11-22T05:26:25.515Z,99825.39
2017-11-22T05:28:51.944Z,99820.16
2017-11-22T05:31:18.337Z,99819.54
2017-11-22T05:33:44.819Z,99815.70
2017-11-22T05:36:11.194Z,99821.28
2017-11-22T05:38:37.678Z,99823.40
2017-11-22T05:41:04.127Z,99823.02
2017-11-22T05:43:30.647Z,99824.86
2017-11-22T05:45:57.018Z,99820.08
2017-11-22T05:48:23.457Z,99823.55
2017-11-22T05:50:49.977Z,99826.95
2017-11-22T05:53:16.400Z,99825.23
2017-11-22T05:55:42.937Z,99835.16
2017-11-22T05:58:09.351Z,99830.81
2017-11-22T06:00:41.909Z,99840.25
2017-11-22T06:03:08.418Z,99835.85
2017-11-22T06:05:35.022Z,99848.53
2017-11-22T06:08:01.586Z,99858.22
2017-11-22T06:10:28.158Z,99866.53
2017-11-22T06:12:54.737Z,99869.27
2017-11-22T06:15:21.528Z,99865.23
2017-11-22T06:17:48.084Z,99864.34
2017-11-22T06:20:14.620Z,99859.33
2017-11-22T06:22:41.193Z,99854.98
2017-11-22T06:25:07.740Z,99847.53
2017-11-22T06:27:34.178Z,99857.72
2017-11-22T06:30:00.593Z,99863.59
2017-11-22T06:32:27.073Z,99868.53
2017-11-22T06:34:53.563Z,99867.17
2017-11-22T06:37:19.917Z,99868.38
2017-11-22T06:39:46.414Z,99870.23
2017-11-22T06:42:12.834Z,99870.23
2017-11-22T06:44:39.194Z,99874.88
2017-11-22T06:47:05.601Z,99883.73
2017-11-22T06:49:32.194Z,99887.41
2017-11-22T06:51:58.621Z,99888.34
2017-11-22T06:54:25.296Z,99895.68
2017-11-22T06:56:51.813Z,99894.25
2017-11-22T06:59:18.317Z,99894.53
2017-11-22T07:01:50.956Z,99899.16
2017-11-22T07:04:17.342Z,99893.22
2017-11-22T07:06:43.894Z,99901.90
2017-11-22T07:09:10.397Z,99903.55
2017-11-22T07:11:37.963Z,99903.95
2017-11-22T07:14:04.452Z,99902.56
2017-11-22T07:16:36.902Z,99900.61
2017-11-22T07:19:03.378Z,99900.33
2017-11-22T07:21:30.135Z,99892.56
2017-11-22T07:23:56.641Z,99888.31
2017-11-22T07:26:23.010Z,99886.00
2017-11-22T07:28:49.401Z,99886.58
2017-11-22T07:31:15.977Z,99888.56
2017-11-22T07:33:42.458Z,99879.61
2017-11-22T07:36:14.837Z,99879.94
2017-11-22T07:38:41.294Z,99878.83
2017-11-22T07:41:07.805Z,99874.59
2017-11-22T07:43:34.270Z,99874.97
2017-11-22T07:46:00.670Z,99879.16
2017-11-22T07:48:27.128Z,99877.20
2017-11-22T07:50:58.668Z,99877.41
2017-11-22T07:53:25.291Z,99874.94
2017-11-22T07:55:51.701Z,99872.95
2017-11-22T07:58:21.105Z,99879.02
2017-11-22T08:00:47.563Z,99883.34
2017-11-22T08:03:14.789Z,99885.06
2017-11-22T08:05:41.298Z,99885.00
2017-11-22T08:08:07.721Z,99883.50
2017-11-22T08:10:34.144Z,99888.76
2017-11-22T08:13:00.741Z,99880.76
2017-11-22T08:15:27.197Z,99884.78
2017-11-22T08:17:53.621Z,99887.28
2017-11-22T08:20:20.230Z,99888.73
2017-11-22T08:22:46.690Z,99894.23
2017-11-22T08:25:13.125Z,99899.89
2017-11-22T08:27:39.689Z,99895.23
2017-11-22T08:30:06.093Z,99897.00
2017-11-22T08:32:32.893Z,99896.78
2017-11-22T08:34:59.369Z,99890.15
2017-11-22T08:37:25.717Z,99893.30
2017-11-22T08:39:52.342Z,99892.75
2017-11-22T08:42:18.980Z,99892.89
2017-11-22T08:44:45.385Z,99897.76
2017-11-22T08:47:11.840Z,99891.46
2017-11-22T08:49:38.487Z,99886.13
2017-11-22T08:52:05.001Z,99881.04
2017-11-22T08:54:37.405Z,99884.98
2017-11-22T08:57:09.979Z,99885.07
2017-11-22T08:59:36.913Z,99881.65
2017-11-22T09:02:03.549Z,99865.11
2017-11-22T09:04:30.327Z,99874.31
2017-11-22T09:06:56.798Z,99870.13
2017-11-22T09:09:23.245Z,99863.33
2017-11-22T09:11:49.694Z,99866.23
2017-11-22T09:14:16.226Z,99863.30
2017-11-22T09:16:42.742Z,99860.47
2017-11-22T09:19:11.166Z,99855.11
2017-11-22T09:21:37.617Z,99849.53
2017-11-22T09:24:04.932Z,99851.88
2017-11-22T09:26:31.367Z,99848.19
2017-11-22T09:28:57.815Z,99839.95
2017-11-22T09:31:30.353Z,99836.36
2017-11-22T09:34:04.670Z,99834.09
2017-11-22T09:36:31.418Z,99826.52
2017-11-22T09:38:57.840Z,99817.41
2017-11-22T09:41:24.233Z,99816.75
2017-11-22T09:43:50.909Z,99822.89
2017-11-22T09:46:17.574Z,99813.09
2017-11-22T09:48:43.954Z,99817.09
2017-11-22T09:51:10.593Z,99813.78
2017-11-22T09:53:37.079Z,99810.97
2017-11-22T09:56:03.461Z,99808.39
2017-11-22T09:58:30.006Z,99810.42
2017-11-22T10:00:56.425Z,99802.30
2017-11-22T10:03:23.019Z,99800.48
2017-11-22T10:05:49.554Z,99798.17
2017-11-22T10:08:16.022Z,99795.52
2017-11-22T10:10:42.520Z,99794.02
2017-11-22T10:13:08.992Z,99793.14
2017-11-22T10:15:35.371Z,99787.72
2017-11-22T10:18:05.954Z,99786.13
2017-11-22T10:20:32.552Z,99786.39
2017-11-22T10:22:59.229Z,99791.31
2017-11-22T10:25:25.858Z,99791.06
2017-11-22T10:27:58.290Z,99785.78
2017-11-22T10:30:29.857Z,99784.50
2017-11-22T10:32:56.329Z,99779.23
2017-11-22T10:35:22.852Z,99777.88
2017-11-22T10:37:49.289Z,99767.83
2017-11-22T10:40:15.717Z,99770.62
2017-11-22T10:42:42.201Z,99771.66
2017-11-22T10:45:08.660Z,99764.84
2017-11-22T10:47:35.150Z,99771.42
2017-11-22T10:50:02.017Z,99773.11
2017-11-22T10:52:28.474Z,99773.81
2017-11-22T10:54:54.881Z,99771.98
2017-11-22T10:57:21.358Z,99780.66
2017-11-22T10:59:47.826Z,99777.09
2017-11-22T11:02:14.405Z,99781.83
2017-11-22T11:04:40.921Z,99777.98
2017-11-22T11:07:07.421Z,99773.66
2017-11-22T11:09:33.838Z,99767.86
2017-11-22T11:12:00.330Z,99764.27
2017-11-22T11:14:26.726Z,99769.56
2017-11-22T11:16:53.251Z,99766.23
2017-11-22T11:19:19.690Z,99761.91
2017-11-22T11:21:46.370Z,99758.20
2017-11-22T11:24:12.865Z,99756.29
2017-11-22T11:26:39.357Z,99754.53
2017-11-22T11:29:05.802Z,99750.31
2017-11-22T11:31:32.265Z,99749.80
2017-11-22T11:33:58.682Z,99746.77
2017-11-22T11:36:31.405Z,99749.61
2017-11-22T11:38:57.990Z,99742.91
2017-11-22T11:41:24.572Z,99736.53
2017-11-22T11:43:51.127Z,99734.41
2017-11-22T11:46:17.733Z,99737.19
2017-11-22T11:48:44.281Z,99729.34
2017-11-22T11:51:10.730Z,99727.67
2017-11-22T11:53:37.154Z,99724.95
2017-11-22T11:56:03.703Z,99721.03
2017-11-22T11:58:30.189Z,99717.22
2017-11-22T12:00:57.003Z,99712.31
2017-11-22T12:03:23.433Z,99714.30
2017-11-22T12:05:50.173Z,99707.37
2017-11-22T12:08:16.614Z,99707.00
2017-11-22T12:10:43.032Z,99708.71
2017-11-22T12:13:09.780Z,99706.38
2017-11-22T12:15:36.189Z,99707.11
2017-11-22T12:18:02.689Z,99703.35
2017-11-22T12:20:29.117Z,99700.55
2017-11-22T12:22:56.510Z,99692.53
2017-11-22T12:25:22.983Z,99690.29
2017-11-22T12:27:49.423Z,99685.50
2017-11-22T12:30:15.865Z,99684.52
2017-11-22T12:32:42.350Z,99678.42
2017-11-22T12:35:09.095Z,99678.98
2017-11-22T12:37:35.513Z,99676.39
2017-11-22T12:40:01.943Z,99678.28
2017-11-22T12:42:32.204Z,99679.63
2017-11-22T12:44:58.582Z,99676.12
2017-11-22T12:47:25.178Z,99680.91
2017-11-22T12:49:58.662Z,99673.31
2017-11-22T12:52:25.134Z,99688.87
2017-11-22T12:54:51.606Z,99679.16
2017-11-22T12:57:18.046Z,99679.69
2017-11-22T12:59:44.513Z,99683.09
2017-11-22T13:02:10.909Z,99680.23
2017-11-22T13:04:37.345Z,99684.67
2017-11-22T13:07:03.959Z,99671.10
2017-11-22T13:09:30.852Z,99677.22
2017-11-22T13:11:58.383Z,99672.51
2017-11-22T13:14:25.215Z,99677.33
2017-11-22T13:16:51.674Z,99672.67
2017-11-22T13:19:18.192Z,99668.22
2017-11-22T13:21:44.669Z,99672.86
2017-11-22T13:24:11.361Z,99672.47
2017-11-22T13:26:37.794Z,99674.66
2017-11-22T13:29:04.259Z,99681.75
2017-11-22T13:31:30.773Z,99690.23
2017-11-22T13:33:57.354Z,99698.56
2017-11-22T13:36:24.007Z,99693.58
2017-11-22T13:38:50.494Z,99693.11
2017-11-22T13:41:16.958Z,99689.06
2017-11-22T13:43:43.506Z,99699.62
2017-11-22T13:46:12.910Z,99699.15
2017-11-22T13:48:39.494Z,99688.83
2017-11-22T13:51:06.002Z,99687.84
2017-11-22T13:53:32.489Z,99697.33
2017-11-22T13:55:59.122Z,99690.20
2017-11-22T13:58:25.761Z,99692.46
2017-11-22T14:00:52.360Z,99690.81
2017-11-22T14:03:18.885Z,99688.55
2017-11-22T14:05:45.474Z,99697.20
2017-11-22T14:08:11.961Z,99692.62
2017-11-22T14:10:38.517Z,99699.26
2017-11-22T14:13:05.110Z,99702.80
2017-11-22T14:15:31.741Z,99701.38
2017-11-22T14:17:58.333Z,99698.23
2017-11-22T14:20:25.005Z,99696.24
2017-11-22T14:22:51.473Z,99695.92
2017-11-22T14:25:18.090Z,99697.42
2017-11-22T14:27:44.645Z,99695.13
2017-11-22T14:30:11.274Z,99695.31
2017-11-22T14:32:37.769Z,99700.44
2017-11-22T14:35:04.338Z,99706.03
2017-11-22T14:37:30.802Z,99706.54
2017-11-22T14:39:57.480Z,99702.63
2017-11-22T14:42:24.014Z,99703.14
2017-11-22T14:44:50.576Z,99703.94
2017-11-22T14:47:17.025Z,99715.98
2017-11-22T14:49:43.578Z,99713.78
2017-11-22T14:52:10.107Z,99714.38
2017-11-22T14:54:36.729Z,99709.80
2017-11-22T14:57:03.265Z,99709.80
2017-11-22T14:59:29.866Z,99718.41
2017-11-22T15:01:56.277Z,99712.17
2017-11-22T15:04:22.839Z,99721.75
2017-11-22T15:06:49.570Z,99726.78
2017-11-22T15:09:16.018Z,99732.89
2017-11-22T15:11:42.508Z,99739.17
2017-11-22T15:14:08.995Z,99736.24
2017-11-22T15:16:35.458Z,99741.77
2017-11-22T15:19:02.607Z,99743.84
2017-11-22T15:21:29.078Z,99745.73
2017-11-22T15:23:55.605Z,99742.27
2017-11-22T15:26:22.167Z,99743.48
2017-11-22T15:28:48.806Z,99748.23
2017-11-22T15:31:15.272Z,99750.16
2017-11-22T15:33:43.740Z,99747.69
2017-11-22T15:36:10.564Z,99747.94
2017-11-22T15:38:39.825Z,99750.94
2017-11-22T15:41:06.482Z,99752.13
2017-11-22T15:43:32.977Z,99751.77
2017-11-22T15:45:59.413Z,99746.09
2017-11-22T15:48:26.006Z,99749.16
2017-11-22T15:50:52.614Z,99758.58
2017-11-22T15:53:19.093Z,99758.10
2017-11-22T15:55:45.564Z,99750.31
2017-11-22T15:58:11.973Z,99752.95
2017-11-22T16:00:38.480Z,99755.88
2017-11-22T16:03:04.997Z,99759.84
2017-11-22T16:05:31.374Z,99760.20
2017-11-22T16:07:57.894Z,99762.61
2017-11-22T16:10:24.529Z,99767.17
2017-11-22T16:12:50.905Z,99766.00
2017-11-22T16:15:17.333Z,99771.24
2017-11-22T16:17:43.791Z,99771.91
2017-11-22T16:20:10.253Z,99774.27
2017-11-22T16:22:36.721Z,99772.71
2017-11-22T16:25:03.306Z,99771.30
2017-11-22T16:27:30.612Z,99771.17
2017-11-22T16:29:57.120Z,99777.58
2017-11-22T16:32:23.576Z,99770.55
2017-11-22T16:34:49.978Z,99779.56
2017-11-22T16:37:16.412Z,99780.32
2017-11-22T16:39:43.136Z,99777.31
2017-11-22T16:42:09.566Z,99775.17
2017-11-22T16:44:36.494Z,99784.28
2017-11-22T16:47:03.939Z,99785.91
2017-11-22T16:49:30.427Z,99800.85
2017-11-22T16:51:56.910Z,99803.95
2017-11-22T16:54:23.437Z,99806.13
2017-11-22T16:56:49.967Z,99801.28
2017-11-22T16:59:16.444Z,99818.20
2017-11-22T17:01:42.943Z,99814.94
2017-11-22T17:04:09.407Z,99818.64
2017-11-22T17:06:36.842Z,99815.34
2017-11-22T17:09:03.627Z,99819.30
2017-11-22T17:11:30.097Z,99814.88
2017-11-22T17:13:56.517Z,99810.13
2017-11-22T17:16:23.001Z,99816.66
2017-11-22T17:18:49.442Z,99815.83
2017-11-22T17:21:15.876Z,99816.63
2017-11-22T17:23:42.610Z,99807.62
2017-11-22T17:26:09.022Z,99806.62
2017-11-22T17:28:35.693Z,99808.64
2017-11-22T17:31:02.961Z,99803.63
2017-11-22T17:33:29.369Z,99805.70
2017-11-22T17:35:55.804Z,99807.31
2017-11-22T17:38:22.219Z,99798.50
2017-11-22T17:40:48.666Z,99795.23
2017-11-22T17:43:15.535Z,99796.09
2017-11-22T17:45:41.970Z,99799.36
2017-11-22T17:48:08.505Z,99798.20
2017-11-22T17:50:35.073Z,99793.68
2017-11-22T17:53:01.806Z,99791.93
2017-11-22T17:55:28.270Z,99785.56
2017-11-22T17:57:54.747Z,99778.20
2017-11-22T18:00:21.342Z,99777.69
2017-11-22T18:02:47.770Z,99779.56
2017-11-22T18:05:14.262Z,99773.06
2017-11-22T18:07:40.901Z,99773.39
2017-11-22T18:10:07.413Z,99769.23
2017-11-22T18:12:33.825Z,99773.30
2017-11-22T18:15:00.270Z,99771.38
2017-11-22T18:17:26.664Z,99775.73
2017-11-22T18:19:53.076Z,99781.06
2017-11-22T18:22:19.602Z,99786.61
2017-11-22T18:24:47.029Z,99793.78
2017-11-22T18:27:13.434Z,99791.00
2017-11-22T18:29:39.950Z,99788.30
2017-11-22T18:32:06.335Z,99785.64
2017-11-22T18:34:32.770Z,99791.34
2017-11-22T18:36:59.399Z,99785.37
2017-11-22T18:39:25.842Z,99790.45
2017-11-22T18:41:52.268Z,99791.38
2017-11-22T18:44:18.742Z,99796.64
2017-11-22T18:46:45.142Z,99797.49
2017-11-22T18:49:12.525Z,99792.78
2017-11-22T18:51:39.026Z,99795.23
2017-11-22T18:54:05.425Z,99794.92
2017-11-22T18:56:31.825Z,99804.48
2017-11-22T18:58:58.390Z,99811.98
2017-11-22T19:01:25.242Z,99802.39
2017-11-22T19:03:51.730Z,99807.09
2017-11-22T19:06:18.225Z,99800.03
2017-11-22T19:08:44.655Z,99804.59
2017-11-22T19:11:11.068Z,99796.41
2017-11-22T19:13:37.487Z,99806.90
2017-11-22T19:16:03.992Z,99800.12
2017-11-22T19:18:30.389Z,99803.27
2017-11-22T19:20:57.711Z,99812.52
2017-11-22T19:23:24.086Z,99816.89
2017-11-22T19:25:50.609Z,99816.47
2017-11-22T19:28:17.120Z,99816.84
2017-11-22T19:30:43.790Z,99818.10
2017-11-22T19:33:10.261Z,99819.45
2017-11-22T19:35:36.842Z,99824.05
2017-11-22T19:38:03.363Z,99829.92
2017-11-22T19:40:29.870Z,99827.60
2017-11-22T19:42:58.376Z,99832.38
2017-11-22T19:45:26.294Z,99835.58
2017-11-22T19:47:53.718Z,99828.72
2017-11-22T19:50:20.183Z,99830.83
2017-11-22T19:52:47.586Z,99829.44
2017-11-22T19:55:14.314Z,99824.25
2017-11-22T19:57:40.803Z,99823.68
2017-11-22T20:00:07.199Z,99820.62
2017-11-22T20:02:33.665Z,99826.34
2017-11-22T20:05:00.339Z,99821.22
2017-11-22T20:07:38.777Z,99823.93
2017-11-22T20:10:05.287Z,99827.61
2017-11-22T20:12:31.710Z,99822.69
2017-11-22T20:14:58.129Z,99822.23
2017-11-22T20:17:24.526Z,99831.99
2017-11-22T20:19:50.990Z,99825.73
2017-11-22T20:22:17.372Z,99826.79
2017-11-22T20:24:44.809Z,99827.06
2017-11-22T20:27:11.175Z,99833.73
2017-11-22T20:29:37.526Z,99829.48
2017-11-22T20:32:05.030Z,99831.50
2017-11-22T20:34:31.518Z,99839.48
2017-11-22T20:36:57.897Z,99842.09
2017-11-22T20:39:24.405Z,99843.84
2017-11-22T20:41:54.596Z,99852.45
2017-11-22T20:44:20.962Z,99846.66
2017-11-22T20:46:47.395Z,99855.35
2017-11-22T20:49:13.761Z,99853.34
2017-11-22T20:51:40.133Z,99851.56
2017-11-22T20:54:06.546Z,99849.66
2017-11-22T20:56:32.901Z,99854.48
2017-11-22T20:58:59.254Z,99861.77
2017-11-22T21:01:25.713Z,99860.23
2017-11-22T21:03:52.074Z,99859.56
2017-11-22T21:06:18.418Z,99860.45
2017-11-22T21:08:44.826Z,99854.55
2017-11-22T21:11:11.343Z,99848.00
2017-11-22T21:13:38.749Z,99851.91
2017-11-22T21:16:05.234Z,99852.66
2017-11-22T21:18:31.702Z,99855.84
2017-11-22T21:20:58.098Z,99853.20
2017-11-22T21:23:24.563Z,99851.47
2017-11-22T21:25:51.069Z,99854.87
2017-11-22T21:28:17.453Z,99855.42
2017-11-22T21:30:43.841Z,99858.38
2017-11-22T21:33:10.222Z,99863.37
2017-11-22T21:35:36.649Z,99858.72
2017-11-22T21:38:03.234Z,99858.06
2017-11-22T21:40:29.620Z,99864.48
2017-11-22T21:42:56.049Z,99863.34
2017-11-22T21:45:22.475Z,99861.47
2017-11-22T21:47:48.865Z,99866.63
2017-11-22T21:50:15.265Z,99864.80
2017-11-22T21:52:41.810Z,99860.97
2017-11-22T21:55:08.246Z,99867.08
2017-11-22T21:57:34.702Z,99869.13
2017-11-22T22:00:01.094Z,99869.55
2017-11-22T22:02:27.497Z,99869.38
2017-11-22T22:04:53.933Z,99877.75
2017-11-22T22:07:20.507Z,99875.16
2017-11-22T22:09:46.847Z,99876.95
2017-11-22T22:12:13.301Z,99880.56
2017-11-22T22:14:39.710Z,99880.05
2017-11-22T22:17:06.087Z,99880.71
2017-11-22T22:19:32.524Z,99875.03
2017-11-22T22:21:59.136Z,99869.17
2017-11-22T22:24:25.493Z,99866.26
2017-11-22T22:26:51.833Z,99871.37
2017-11-22T22:29:18.334Z,99865.88
2017-11-22T22:31:44.741Z,99863.09
2017-11-22T22:34:11.121Z,99858.46
2017-11-22T22:36:37.536Z,99856.73
2017-11-22T22:39:04.097Z,99850.50
2017-11-22T22:41:30.503Z,99850.55
2017-11-22T22:43:56.959Z,99847.67
2017-11-22T22:46:23.378Z,99841.00
2017-11-22T22:48:49.833Z,99848.93
2017-11-22T22:51:16.269Z,99849.79
2017-11-22T22:53:42.746Z,99848.41
2017-11-22T22:56:09.075Z,99852.83
2017-11-22T22:58:35.562Z,99853.73
2017-11-22T23:01:01.953Z,99857.10
2017-11-22T23:03:28.399Z,99857.91
2017-11-22T23:05:54.868Z,99852.33
2017-11-22T23:08:21.237Z,99860.61
2017-11-22T23:10:47.665Z,99861.48
2017-11-22T23:13:14.205Z,99857.13
2017-11-22T23:15:40.647Z,99856.50
2017-11-22T23:18:06.998Z,99862.11
2017-11-22T23:20:33.410Z,99867.00
2017-11-22T23:22:59.877Z,99867.12
2017-11-22T23:25:26.299Z,99871.58
2017-11-22T23:27:52.713Z,99866.28
2017-11-22T23:30:19.118Z,99868.41
2017-11-22T23:32:45.655Z,99866.73
2017-11-22T23:35:12.238Z,99871.66
2017-11-22T23:37:38.773Z,99866.18
2017-11-22T23:40:05.181Z,99865.65
2017-11-22T23:42:31.613Z,99871.47
2017-11-22T23:44:58.005Z,99868.52
2017-11-22T23:47:24.466Z,99873.92
2017-11-22T23:49:51.017Z,99884.05
2017-11-22T23:52:17.477Z,99874.57
2017-11-22T23:54:43.941Z,99881.42
2017-11-22T23:57:10.418Z,99882.14
2017-11-22T23:59:36.872Z,99880.98
